createdAt,value
2018-04-29T00:01:17.854Z,100408.36
2018-04-29T00:03:46.986Z,100412.36
2018-04-29T00:06:16.060Z,100413.69
2018-04-29T00:08:44.803Z,100404.69
2018-04-29T00:11:13.147Z,100400.53
2018-04-29T00:13:41.899Z,100386.35
2018-04-29T00:16:10.245Z,100382.02
2018-04-29T00:18:39.019Z,100379.69
2018-04-29T00:21:07.339Z,100379.94
2018-04-29T00:23:35.660Z,100376.96
2018-04-29T00:26:04.438Z,100363.73
2018-04-29T00:28:32.790Z,100355.41
2018-04-29T00:31:02.498Z,100346.12
2018-04-29T00:33:31.637Z,100338.27
2018-04-29T00:35:59.982Z,100332.75
2018-04-29T00:38:29.126Z,100334.53
2018-04-29T00:40:57.862Z,100322.23
2018-04-29T00:43:27.724Z,100316.47
2018-04-29T00:45:57.215Z,100305.08
2018-04-29T00:48:25.586Z,100296.10
2018-04-29T00:50:53.986Z,100290.95
2018-04-29T00:53:22.683Z,100295.03
2018-04-29T00:55:51.441Z,100305.47
2018-04-29T00:58:20.168Z,100311.72
2018-04-29T01:00:50.040Z,100311.58
2018-04-29T01:03:18.390Z,100317.20
2018-04-29T01:05:47.506Z,100313.46
2018-04-29T01:08:16.284Z,100320.16
2018-04-29T01:10:44.622Z,100313.81
2018-04-29T01:13:12.967Z,100322.25
2018-04-29T01:15:42.099Z,100320.91
2018-04-29T01:18:10.470Z,100327.70
2018-04-29T01:20:38.845Z,100322.14
2018-04-29T01:23:08.027Z,100329.66
2018-04-29T01:25:36.765Z,100328.37
2018-04-29T01:28:05.863Z,100329.09
2018-04-29T01:30:34.228Z,100334.66
2018-04-29T01:33:03.347Z,100333.16
2018-04-29T01:35:31.725Z,100329.98
2018-04-29T01:38:00.042Z,100322.77
2018-04-29T01:40:28.483Z,100315.45
2018-04-29T01:42:56.836Z,100327.41
2018-04-29T01:45:25.628Z,100338.77
2018-04-29T01:47:54.718Z,100342.14
2018-04-29T01:50:23.833Z,100342.76
2018-04-29T01:52:52.216Z,100341.95
2018-04-29T01:55:20.558Z,100352.06
2018-04-29T01:57:48.890Z,100352.70
2018-04-29T02:00:17.327Z,100349.91
2018-04-29T02:02:45.620Z,100350.95
2018-04-29T02:05:14.375Z,100350.23
2018-04-29T02:07:42.710Z,100361.79
2018-04-29T02:10:11.091Z,100360.48
2018-04-29T02:12:39.830Z,100351.63
2018-04-29T02:15:08.936Z,100348.11
2018-04-29T02:17:38.066Z,100346.38
2018-04-29T02:20:06.408Z,100347.22
2018-04-29T02:22:36.272Z,100352.11
2018-04-29T02:25:04.632Z,100353.00
2018-04-29T02:27:32.991Z,100351.39
2018-04-29T02:30:01.354Z,100350.25
2018-04-29T02:32:30.870Z,100359.75
2018-04-29T02:34:59.238Z,100359.45
2018-04-29T02:37:28.631Z,100359.27
2018-04-29T02:39:57.769Z,100359.83
2018-04-29T02:42:26.103Z,100359.17
2018-04-29T02:44:55.845Z,100363.57
2018-04-29T02:47:25.377Z,100365.65
2018-04-29T02:49:55.283Z,100363.48
2018-04-29T02:52:23.656Z,100369.55
2018-04-29T02:54:52.116Z,100362.34
2018-04-29T02:57:20.893Z,100367.58
2018-04-29T02:59:49.989Z,100373.69
2018-04-29T03:02:18.329Z,100385.61
2018-04-29T03:04:46.766Z,100379.99
2018-04-29T03:07:16.455Z,100381.25
2018-04-29T03:09:46.415Z,100380.73
2018-04-29T03:12:14.772Z,100379.39
2018-04-29T03:14:45.217Z,100382.58
2018-04-29T03:17:14.190Z,100384.99
2018-04-29T03:19:42.567Z,100386.50
2018-04-29T03:22:10.988Z,100382.32
2018-04-29T03:24:40.374Z,100386.19
2018-04-29T03:27:10.170Z,100387.48
2018-04-29T03:29:39.872Z,100389.94
2018-04-29T03:32:10.317Z,100387.91
2018-04-29T03:34:39.446Z,100388.52
2018-04-29T03:37:08.590Z,100382.44
2018-04-29T03:39:36.928Z,100374.98
2018-04-29T03:42:06.078Z,100373.63
2018-04-29T03:44:34.624Z,100365.14
2018-04-29T03:47:03.813Z,100359.27
2018-04-29T03:49:32.633Z,100357.96
2018-04-29T03:52:02.841Z,100359.75
2018-04-29T03:54:32.157Z,100358.85
2018-04-29T03:57:18.432Z,100356.09
2018-04-29T04:00:04.649Z,100344.88
2018-04-29T04:02:51.537Z,100346.38
2018-04-29T04:05:20.504Z,100350.39
2018-04-29T04:07:50.229Z,100357.34
2018-04-29T04:10:20.246Z,100360.25
2018-04-29T04:12:48.654Z,100363.08
2018-04-29T04:15:16.965Z,100368.69
2018-04-29T04:17:46.090Z,100368.73
2018-04-29T04:20:15.201Z,100373.78
2018-04-29T04:22:43.972Z,100373.06
2018-04-29T04:25:13.157Z,100380.63
2018-04-29T04:27:42.862Z,100380.34
2018-04-29T04:30:12.933Z,100383.32
2018-04-29T04:32:42.681Z,100384.66
2018-04-29T04:35:12.094Z,100394.78
2018-04-29T04:37:40.458Z,100395.14
2018-04-29T04:40:10.226Z,100405.06
2018-04-29T04:42:38.631Z,100405.49
2018-04-29T04:45:08.088Z,100414.78
2018-04-29T04:47:37.235Z,100413.41
2018-04-29T04:50:07.119Z,100412.48
2018-04-29T04:52:35.788Z,100406.67
2018-04-29T04:55:04.940Z,100399.11
2018-04-29T04:57:33.457Z,100403.34
2018-04-29T05:00:04.303Z,100414.38
2018-04-29T05:02:34.213Z,100410.55
2018-04-29T05:05:04.543Z,100409.43
2018-04-29T05:07:33.512Z,100404.20
2018-04-29T05:10:02.331Z,100407.80
2018-04-29T05:12:31.320Z,100408.30
2018-04-29T05:15:00.474Z,100415.48
2018-04-29T05:17:28.892Z,100416.83
2018-04-29T05:19:57.249Z,100412.45
2018-04-29T05:22:25.613Z,100418.66
2018-04-29T05:24:54.691Z,100418.74
2018-04-29T05:27:23.060Z,100421.50
2018-04-29T05:29:51.386Z,100417.25
2018-04-29T05:32:19.721Z,100419.73
2018-04-29T05:34:48.085Z,100416.94
2018-04-29T05:37:16.813Z,100417.59
2018-04-29T05:39:46.691Z,100413.39
2018-04-29T05:42:15.572Z,100404.73
2018-04-29T05:44:44.711Z,100410.55
2018-04-29T05:47:13.049Z,100407.10
2018-04-29T05:49:42.175Z,100402.23
2018-04-29T05:52:10.491Z,100394.48
2018-04-29T05:54:39.604Z,100411.62
2018-04-29T05:57:08.940Z,100409.23
2018-04-29T05:59:37.706Z,100411.14
2018-04-29T06:02:06.071Z,100412.22
2018-04-29T06:04:34.410Z,100409.78
2018-04-29T06:07:03.505Z,100409.47
2018-04-29T06:09:32.617Z,100411.34
2018-04-29T06:12:01.336Z,100410.64
2018-04-29T06:14:29.717Z,100409.38
2018-04-29T06:16:58.020Z,100408.12
2018-04-29T06:19:27.515Z,100409.96
2018-04-29T06:21:56.652Z,100403.30
2018-04-29T06:24:25.813Z,100406.84
2018-04-29T06:26:54.534Z,100409.03
2018-04-29T06:29:22.884Z,100400.66
2018-04-29T06:31:51.994Z,100389.56
2018-04-29T06:34:20.299Z,100383.81
2018-04-29T06:36:48.809Z,100383.34
2018-04-29T06:39:17.999Z,100383.45
2018-04-29T06:41:46.453Z,100382.66
2018-04-29T06:44:14.786Z,100387.56
2018-04-29T06:46:43.365Z,100383.39
2018-04-29T06:49:13.017Z,100385.44
2018-04-29T06:51:42.106Z,100381.89
2018-04-29T06:54:11.279Z,100379.67
2018-04-29T06:56:39.669Z,100381.23
2018-04-29T06:59:09.829Z,100376.61
2018-04-29T07:01:38.597Z,100369.19
2018-04-29T07:04:06.938Z,100375.00
2018-04-29T07:06:37.631Z,100388.66
2018-04-29T07:09:07.604Z,100395.03
2018-04-29T07:11:37.411Z,100399.10
2018-04-29T07:14:05.782Z,100404.25
2018-04-29T07:16:34.125Z,100409.81
2018-04-29T07:19:02.913Z,100416.20
2018-04-29T07:21:31.252Z,100411.02
2018-04-29T07:24:00.344Z,100419.03
2018-04-29T07:26:29.480Z,100417.52
2018-04-29T07:28:57.861Z,100414.77
2018-04-29T07:31:26.235Z,100409.53
2018-04-29T07:33:55.329Z,100411.53
2018-04-29T07:36:23.625Z,100412.39
2018-04-29T07:38:51.986Z,100412.89
2018-04-29T07:41:20.312Z,100409.34
2018-04-29T07:43:49.414Z,100405.17
2018-04-29T07:46:17.780Z,100397.42
2018-04-29T07:48:47.756Z,100401.21
2018-04-29T07:51:16.187Z,100397.16
2018-04-29T07:53:45.325Z,100389.16
2018-04-29T07:56:14.446Z,100390.59
2018-04-29T07:58:42.810Z,100390.17
2018-04-29T08:01:11.885Z,100392.95
2018-04-29T08:03:41.154Z,100381.38
2018-04-29T08:06:10.271Z,100382.31
2018-04-29T08:08:38.649Z,100381.05
2018-04-29T08:11:07.007Z,100379.52
2018-04-29T08:13:36.221Z,100378.31
2018-04-29T08:16:04.615Z,100380.91
2018-04-29T08:18:32.951Z,100377.48
2018-04-29T08:21:02.070Z,100376.53
2018-04-29T08:23:30.470Z,100372.86
2018-04-29T08:25:58.829Z,100363.30
2018-04-29T08:28:27.193Z,100368.44
2018-04-29T08:30:56.407Z,100354.86
2018-04-29T08:33:24.728Z,100354.30
2018-04-29T08:35:53.093Z,100358.20
2018-04-29T08:38:21.447Z,100359.43
2018-04-29T08:40:49.766Z,100357.73
2018-04-29T08:43:18.940Z,100351.61
2018-04-29T08:45:47.299Z,100346.45
2018-04-29T08:48:15.754Z,100351.58
2018-04-29T08:50:44.093Z,100343.61
2018-04-29T08:53:12.614Z,100347.23
2018-04-29T08:55:41.111Z,100353.14
2018-04-29T08:58:09.520Z,100353.02
2018-04-29T09:00:37.922Z,100346.62
2018-04-29T09:03:06.238Z,100343.97
2018-04-29T09:05:34.719Z,100333.88
2018-04-29T09:08:03.099Z,100334.31
2018-04-29T09:10:33.358Z,100324.27
2018-04-29T09:13:03.044Z,100332.63
2018-04-29T09:15:32.121Z,100339.63
2018-04-29T09:18:01.204Z,100341.98
2018-04-29T09:20:30.593Z,100338.45
2018-04-29T09:22:58.949Z,100338.77
2018-04-29T09:25:27.269Z,100331.55
2018-04-29T09:27:55.618Z,100331.08
2018-04-29T09:30:23.951Z,100332.39
2018-04-29T09:32:52.334Z,100333.05
2018-04-29T09:35:20.653Z,100325.19
2018-04-29T09:37:49.569Z,100324.19
2018-04-29T09:40:17.954Z,100331.45
2018-04-29T09:42:46.331Z,100329.11
2018-04-29T09:45:15.018Z,100330.98
2018-04-29T09:47:43.337Z,100329.50
2018-04-29T09:50:11.682Z,100325.06
2018-04-29T09:52:40.152Z,100320.02
2018-04-29T09:55:08.552Z,100324.70
2018-04-29T09:57:38.192Z,100322.38
2018-04-29T10:00:06.575Z,100324.55
2018-04-29T10:02:35.246Z,100320.94
2018-04-29T10:05:03.593Z,100321.75
2018-04-29T10:07:31.930Z,100316.31
2018-04-29T10:10:01.081Z,100317.66
2018-04-29T10:12:29.462Z,100313.94
2018-04-29T10:14:57.827Z,100311.48
2018-04-29T10:17:26.226Z,100306.24
2018-04-29T10:19:54.579Z,100303.51
2018-04-29T10:22:22.946Z,100302.81
2018-04-29T10:24:51.282Z,100303.34
2018-04-29T10:27:19.658Z,100294.90
2018-04-29T10:29:47.985Z,100295.44
2018-04-29T10:32:17.225Z,100291.77
2018-04-29T10:34:45.599Z,100287.38
2018-04-29T10:37:13.940Z,100288.78
2018-04-29T10:39:42.266Z,100286.80
2018-04-29T10:42:10.632Z,100281.73
2018-04-29T10:44:38.952Z,100276.45
2018-04-29T10:47:07.329Z,100282.12
2018-04-29T10:49:35.665Z,100273.19
2018-04-29T10:52:04.138Z,100267.67
2018-04-29T10:54:32.742Z,100267.94
2018-04-29T10:57:01.068Z,100265.18
2018-04-29T10:59:29.458Z,100263.63
2018-04-29T11:01:57.861Z,100262.50
2018-04-29T11:04:26.226Z,100255.14
2018-04-29T11:06:54.586Z,100251.05
2018-04-29T11:09:22.924Z,100245.64
2018-04-29T11:11:52.197Z,100246.11
2018-04-29T11:14:21.551Z,100241.88
2018-04-29T11:16:51.658Z,100238.02
2018-04-29T11:19:20.638Z,100240.96
2018-04-29T11:21:49.792Z,100226.97
2018-04-29T11:24:18.153Z,100241.90
2018-04-29T11:26:47.036Z,100240.05
2018-04-29T11:29:15.996Z,100236.67
2018-04-29T11:31:44.388Z,100226.95
2018-04-29T11:34:13.705Z,100225.83
2018-04-29T11:36:43.263Z,100222.02
2018-04-29T11:39:12.468Z,100221.52
2018-04-29T11:41:46.112Z,100216.72
2018-04-29T11:44:14.585Z,100215.60
2018-04-29T11:46:42.907Z,100207.78
2018-04-29T11:49:11.230Z,100202.69
2018-04-29T11:51:40.742Z,100202.64
2018-04-29T11:54:09.186Z,100204.80
2018-04-29T11:56:38.337Z,100194.62
2018-04-29T11:59:07.495Z,100195.86
2018-04-29T12:01:35.955Z,100189.31
2018-04-29T12:04:06.831Z,100182.36
2018-04-29T12:06:35.387Z,100176.79
2018-04-29T12:09:08.618Z,100172.77
2018-04-29T12:11:38.193Z,100173.16
2018-04-29T12:14:08.509Z,100170.30
2018-04-29T12:16:37.628Z,100162.82
2018-04-29T12:19:06.557Z,100162.89
2018-04-29T12:21:34.890Z,100178.28
2018-04-29T12:24:03.291Z,100174.77
2018-04-29T12:26:31.656Z,100172.16
2018-04-29T12:29:00.045Z,100175.36
2018-04-29T12:31:28.402Z,100163.88
2018-04-29T12:33:56.768Z,100162.14
2018-04-29T12:36:25.888Z,100160.94
2018-04-29T12:38:54.593Z,100154.34
2018-04-29T12:41:23.058Z,100152.67
2018-04-29T12:43:51.426Z,100151.02
2018-04-29T12:46:19.757Z,100153.95
2018-04-29T12:48:48.512Z,100146.89
2018-04-29T12:51:16.840Z,100146.14
2018-04-29T12:53:46.402Z,100142.90
2018-04-29T12:56:14.775Z,100140.88
2018-04-29T12:58:43.093Z,100134.41
2018-04-29T13:01:11.425Z,100139.58
2018-04-29T13:03:40.880Z,100135.94
2018-04-29T13:06:09.974Z,100130.78
2018-04-29T13:08:38.368Z,100125.45
2018-04-29T13:11:07.509Z,100123.70
2018-04-29T13:13:35.847Z,100120.10
2018-04-29T13:16:04.208Z,100118.28
2018-04-29T13:18:32.550Z,100116.94
2018-04-29T13:21:00.888Z,100107.47
2018-04-29T13:23:29.417Z,100102.85
2018-04-29T13:25:58.601Z,100102.73
2018-04-29T13:28:26.914Z,100105.05
2018-04-29T13:30:56.038Z,100099.61
2018-04-29T13:33:24.348Z,100092.02
2018-04-29T13:35:52.700Z,100092.50
2018-04-29T13:38:21.017Z,100086.59
2018-04-29T13:40:49.362Z,100085.28
2018-04-29T13:43:17.798Z,100080.06
2018-04-29T13:45:46.941Z,100071.55
2018-04-29T13:48:15.290Z,100074.92
2018-04-29T13:50:43.698Z,100069.59
2018-04-29T13:53:12.034Z,100067.68
2018-04-29T13:55:41.166Z,100062.50
2018-04-29T13:58:09.516Z,100059.09
2018-04-29T14:00:38.641Z,100056.42
2018-04-29T14:03:07.020Z,100053.05
2018-04-29T14:05:35.393Z,100052.98
2018-04-29T14:08:03.726Z,100050.44
2018-04-29T14:10:32.862Z,100048.20
2018-04-29T14:13:01.306Z,100045.66
2018-04-29T14:15:29.563Z,100042.88
2018-04-29T14:17:57.941Z,100041.19
2018-04-29T14:20:26.277Z,100042.67
2018-04-29T14:22:54.613Z,100047.33
2018-04-29T14:25:23.697Z,100043.76
2018-04-29T14:27:52.070Z,100031.59
2018-04-29T14:30:21.314Z,100034.13
2018-04-29T14:32:49.665Z,100032.53
2018-04-29T14:35:18.003Z,100029.27
2018-04-29T14:37:46.363Z,100027.48
2018-04-29T14:40:14.698Z,100026.48
2018-04-29T14:42:43.942Z,100023.34
2018-04-29T14:45:12.320Z,100024.13
2018-04-29T14:47:40.663Z,100027.20
2018-04-29T14:50:10.513Z,100034.33
2018-04-29T14:52:38.891Z,100033.39
2018-04-29T14:55:07.220Z,100019.58
2018-04-29T14:57:36.332Z,100023.56
2018-04-29T15:00:04.676Z,100021.56
2018-04-29T15:02:33.049Z,100019.08
2018-04-29T15:05:02.343Z,99999.53
2018-04-29T15:07:31.116Z,100016.73
2018-04-29T15:09:59.448Z,100015.37
2018-04-29T15:12:27.855Z,100015.42
2018-04-29T15:14:56.212Z,100004.45
2018-04-29T15:17:24.530Z,100001.53
2018-04-29T15:19:52.874Z,100001.31
2018-04-29T15:22:21.263Z,99993.75
2018-04-29T15:24:49.668Z,99993.05
2018-04-29T15:27:17.986Z,99984.05
2018-04-29T15:29:47.097Z,99986.70
2018-04-29T15:32:15.446Z,99986.77
2018-04-29T15:34:43.785Z,99979.34
2018-04-29T15:37:12.138Z,99975.06
2018-04-29T15:39:40.449Z,99973.23
2018-04-29T15:42:08.790Z,99974.12
2018-04-29T15:44:37.169Z,99965.80
2018-04-29T15:47:05.559Z,99963.38
2018-04-29T15:49:33.874Z,99958.82
2018-04-29T15:52:02.225Z,99959.08
2018-04-29T15:54:30.595Z,99957.17
2018-04-29T15:56:58.935Z,99952.23
2018-04-29T15:59:28.043Z,99948.95
2018-04-29T16:01:56.409Z,99950.82
2018-04-29T16:04:25.499Z,99949.52
2018-04-29T16:06:54.606Z,99948.48
2018-04-29T16:09:22.919Z,99944.91
2018-04-29T16:11:52.043Z,99936.84
2018-04-29T16:14:20.393Z,99938.56
2018-04-29T16:16:48.785Z,99937.19
2018-04-29T16:19:17.144Z,99929.48
2018-04-29T16:21:45.499Z,99929.87
2018-04-29T16:24:13.838Z,99931.29
2018-04-29T16:26:42.220Z,99930.05
2018-04-29T16:29:10.538Z,99924.23
2018-04-29T16:31:38.885Z,99929.58
2018-04-29T16:34:08.002Z,99926.49
2018-04-29T16:36:36.324Z,99922.22
2018-04-29T16:39:04.681Z,99926.70
2018-04-29T16:41:32.994Z,99915.72
2018-04-29T16:44:01.329Z,99911.74
2018-04-29T16:46:29.687Z,99917.04
2018-04-29T16:48:58.057Z,99916.38
2018-04-29T16:51:26.418Z,99909.65
2018-04-29T16:53:55.573Z,99911.55
2018-04-29T16:56:23.914Z,99909.30
2018-04-29T16:58:52.267Z,99910.59
2018-04-29T17:01:20.673Z,99911.14
2018-04-29T17:03:49.765Z,99903.80
2018-04-29T17:06:18.117Z,99899.81
2018-04-29T17:08:46.441Z,99901.73
2018-04-29T17:11:14.757Z,99902.96
2018-04-29T17:13:43.117Z,99903.65
2018-04-29T17:16:11.445Z,99903.02
2018-04-29T17:18:40.533Z,99898.30
2018-04-29T17:21:09.704Z,99903.41
2018-04-29T17:23:38.127Z,99897.64
2018-04-29T17:26:07.025Z,99897.34
2018-04-29T17:28:35.651Z,99891.08
2018-04-29T17:31:03.968Z,99890.59
2018-04-29T17:33:32.327Z,99889.08
2018-04-29T17:36:01.422Z,99887.70
2018-04-29T17:38:30.541Z,99891.47
2018-04-29T17:40:58.867Z,99892.38
2018-04-29T17:43:30.982Z,99890.19
2018-04-29T17:45:59.323Z,99885.38
2018-04-29T17:48:28.163Z,99890.78
2018-04-29T17:50:56.727Z,99893.71
2018-04-29T17:53:25.255Z,99892.31
2018-04-29T17:55:53.610Z,99886.09
2018-04-29T17:58:22.226Z,99880.13
2018-04-29T18:00:50.578Z,99877.10
2018-04-29T18:03:18.959Z,99876.05
2018-04-29T18:05:47.299Z,99879.46
2018-04-29T18:08:17.293Z,99880.63
2018-04-29T18:10:46.520Z,99876.89
2018-04-29T18:13:15.625Z,99883.13
2018-04-29T18:15:43.971Z,99876.37
2018-04-29T18:18:12.305Z,99873.85
2018-04-29T18:20:40.660Z,99880.23
2018-04-29T18:23:09.017Z,99873.80
2018-04-29T18:25:38.125Z,99879.75
2018-04-29T18:28:06.454Z,99884.00
2018-04-29T18:30:34.834Z,99884.23
2018-04-29T18:33:03.178Z,99884.59
2018-04-29T18:35:32.247Z,99885.55
2018-04-29T18:38:03.051Z,99877.92
2018-04-29T18:40:33.823Z,99876.97
2018-04-29T18:43:02.734Z,99881.39
2018-04-29T18:45:31.076Z,99878.98
2018-04-29T18:48:01.138Z,99890.88
2018-04-29T18:50:29.937Z,99889.47
2018-04-29T18:52:58.323Z,99888.16
2018-04-29T18:55:47.684Z,99887.59
2018-04-29T18:58:18.878Z,99887.81
2018-04-29T19:00:47.650Z,99880.22
2018-04-29T19:03:17.391Z,99887.42
2018-04-29T19:05:48.378Z,99883.98
2018-04-29T19:08:16.798Z,99887.04
2018-04-29T19:10:47.517Z,99883.60
2018-04-29T19:13:17.245Z,99881.61
2018-04-29T19:15:45.874Z,99882.10
2018-04-29T19:18:14.218Z,99877.83
2018-04-29T19:20:43.007Z,99884.92
2018-04-29T19:23:11.456Z,99878.97
2018-04-29T19:25:40.564Z,99879.88
2018-04-29T19:28:09.715Z,99880.58
2018-04-29T19:30:38.084Z,99877.97
2018-04-29T19:33:06.440Z,99876.34
2018-04-29T19:35:34.850Z,99862.12
2018-04-29T19:38:03.216Z,99875.20
2018-04-29T19:40:31.558Z,99868.00
2018-04-29T19:42:59.938Z,99863.46
2018-04-29T19:45:28.656Z,99856.91
2018-04-29T19:47:56.998Z,99858.99
2018-04-29T19:50:25.384Z,99859.05
2018-04-29T19:52:53.718Z,99854.72
2018-04-29T19:55:22.138Z,99843.73
2018-04-29T19:57:50.511Z,99847.38
2018-04-29T20:00:18.840Z,99845.88
2018-04-29T20:02:47.279Z,99840.21
2018-04-29T20:05:16.571Z,99838.38
2018-04-29T20:07:44.943Z,99828.14
2018-04-29T20:10:13.298Z,99830.48
2018-04-29T20:12:42.278Z,99829.19
2018-04-29T20:15:10.697Z,99824.06
2018-04-29T20:17:39.086Z,99822.16
2018-04-29T20:20:07.436Z,99819.09
2018-04-29T20:22:36.539Z,99816.27
2018-04-29T20:25:05.653Z,99817.73
2018-04-29T20:27:33.960Z,99821.67
2018-04-29T20:30:02.498Z,99815.53
2018-04-29T20:32:56.191Z,99816.67
2018-04-29T20:35:24.532Z,99809.61
2018-04-29T20:37:54.109Z,99806.38
2018-04-29T20:40:22.433Z,99792.07
2018-04-29T20:42:50.815Z,99794.19
2018-04-29T20:45:19.165Z,99791.02
2018-04-29T20:47:48.282Z,99790.87
2018-04-29T20:50:17.404Z,99792.34
2018-04-29T20:52:46.141Z,99787.75
2018-04-29T20:55:14.573Z,99778.70
2018-04-29T20:57:43.710Z,99778.52
2018-04-29T21:00:12.020Z,99774.41
2018-04-29T21:02:40.388Z,99762.29
2018-04-29T21:05:09.504Z,99759.13
2018-04-29T21:07:37.878Z,99754.65
2018-04-29T21:10:06.294Z,99749.33
2018-04-29T21:12:34.687Z,99744.78
2018-04-29T21:15:03.105Z,99741.63
2018-04-29T21:17:31.507Z,99740.46
2018-04-29T21:20:00.605Z,99732.02
2018-04-29T21:22:29.039Z,99724.89
2018-04-29T21:24:58.181Z,99728.56
2018-04-29T21:27:26.555Z,99727.89
2018-04-29T21:29:54.887Z,99725.02
2018-04-29T21:32:23.249Z,99727.61
2018-04-29T21:34:51.556Z,99728.09
2018-04-29T21:37:20.679Z,99723.11
2018-04-29T21:39:49.009Z,99718.13
2018-04-29T21:42:17.330Z,99717.80
2018-04-29T21:44:45.707Z,99710.18
2018-04-29T21:47:14.090Z,99708.94
2018-04-29T21:49:42.403Z,99703.61
2018-04-29T21:52:10.751Z,99706.88
2018-04-29T21:54:39.126Z,99698.41
2018-04-29T21:57:07.478Z,99697.25
2018-04-29T21:59:35.832Z,99701.58
2018-04-29T22:02:04.195Z,99695.58
2018-04-29T22:04:32.541Z,99691.81
2018-04-29T22:07:00.876Z,99686.08
2018-04-29T22:09:30.012Z,99688.66
2018-04-29T22:11:58.341Z,99679.09
2018-04-29T22:14:26.701Z,99681.05
2018-04-29T22:16:55.014Z,99671.32
2018-04-29T22:19:23.361Z,99671.73
2018-04-29T22:21:51.668Z,99670.28
2018-04-29T22:24:20.797Z,99666.55
2018-04-29T22:26:49.167Z,99659.23
2018-04-29T22:29:17.545Z,99653.52
2018-04-29T22:31:45.873Z,99650.48
2018-04-29T22:34:14.213Z,99645.55
2018-04-29T22:36:42.566Z,99643.00
2018-04-29T22:39:10.936Z,99640.33
2018-04-29T22:41:39.277Z,99631.38
2018-04-29T22:44:07.657Z,99626.19
2018-04-29T22:46:35.985Z,99626.87
2018-04-29T22:49:04.325Z,99619.25
2018-04-29T22:51:33.453Z,99617.24
2018-04-29T22:54:01.825Z,99616.30
2018-04-29T22:56:30.577Z,99607.80
2018-04-29T22:58:58.961Z,99594.02
2018-04-29T23:01:28.079Z,99595.56
2018-04-29T23:03:57.242Z,99588.38
2018-04-29T23:06:25.551Z,99586.73
2018-04-29T23:08:54.695Z,99587.90
2018-04-29T23:11:23.080Z,99583.52
2018-04-29T23:13:51.432Z,99576.26
2018-04-29T23:16:19.789Z,99570.05
2018-04-29T23:18:48.168Z,99559.70
2018-04-29T23:21:16.488Z,99559.28
2018-04-29T23:23:44.828Z,99543.52
2018-04-29T23:26:13.589Z,99544.82
2018-04-29T23:28:42.760Z,99543.58
2018-04-29T23:31:11.079Z,99533.20
2018-04-29T23:33:39.400Z,99538.27
2018-04-29T23:36:07.760Z,99520.67
2018-04-29T23:38:36.080Z,99525.94
2018-04-29T23:41:04.413Z,99524.77
2018-04-29T23:43:32.784Z,99519.91
2018-04-29T23:46:01.143Z,99520.34
2018-04-29T23:48:29.532Z,99518.34
2018-04-29T23:50:57.862Z,99506.55
2018-04-29T23:53:26.208Z,99506.00
2018-04-29T23:55:54.560Z,99497.54
2018-04-29T23:58:22.902Z,99497.56
